sensor_id;sensor_type;location;lat;lon;timestamp;P1;durP1;ratioP1;P2;durP2;ratioP2
83447;SDS011;73376;45.472;-73.568;2023-11-21T00:00:41;8.60;;;2.17;;
83447;SDS011;73376;45.472;-73.568;2023-11-21T00:03:07;11.07;;;2.20;;
83447;SDS011;73376;45.472;-73.568;2023-11-21T00:05:33;17.57;;;2.60;;
83447;SDS011;73376;45.472;-73.568;2023-11-21T00:08:00;12.53;;;2.20;;
83447;SDS011;73376;45.472;-73.568;2023-11-21T00:10:26;12.13;;;2.47;;
83447;SDS011;73376;45.472;-73.568;2023-11-21T00:12:53;9.43;;;2.37;;
83447;SDS011;73376;45.472;-73.568;2023-11-21T00:15:20;9.60;;;2.50;;
83447;SDS011;73376;45.472;-73.568;2023-11-21T00:17:47;12.40;;;2.23;;
83447;SDS011;73376;45.472;-73.568;2023-11-21T00:20:22;11.63;;;2.90;;
83447;SDS011;73376;45.472;-73.568;2023-11-21T00:22:47;11.93;;;3.07;;
83447;SDS011;73376;45.472;-73.568;2023-11-21T00:25:13;9.37;;;3.00;;
83447;SDS011;73376;45.472;-73.568;2023-11-21T00:27:41;13.40;;;3.30;;
83447;SDS011;73376;45.472;-73.568;2023-11-21T00:30:07;11.10;;;2.33;;
83447;SDS011;73376;45.472;-73.568;2023-11-21T00:32:35;8.50;;;2.93;;
83447;SDS011;73376;45.472;-73.568;2023-11-21T00:35:02;11.57;;;3.10;;
83447;SDS011;73376;45.472;-73.568;2023-11-21T00:37:28;10.87;;;2.60;;
83447;SDS011;73376;45.472;-73.568;2023-11-21T00:39:57;5.67;;;2.27;;
83447;SDS011;73376;45.472;-73.568;2023-11-21T00:42:23;9.73;;;2.33;;
83447;SDS011;73376;45.472;-73.568;2023-11-21T00:44:49;12.10;;;2.07;;
83447;SDS011;73376;45.472;-73.568;2023-11-21T00:47:15;9.17;;;1.97;;
83447;SDS011;73376;45.472;-73.568;2023-11-21T00:49:41;9.13;;;2.10;;
83447;SDS011;73376;45.472;-73.568;2023-11-21T00:52:08;11.60;;;1.77;;
83447;SDS011;73376;45.472;-73.568;2023-11-21T00:54:34;9.53;;;1.90;;
83447;SDS011;73376;45.472;-73.568;2023-11-21T00:57:02;12.77;;;2.37;;
83447;SDS011;73376;45.472;-73.568;2023-11-21T00:59:28;8.73;;;1.83;;
83447;SDS011;73376;45.472;-73.568;2023-11-21T01:01:55;6.87;;;2.03;;
83447;SDS011;73376;45.472;-73.568;2023-11-21T01:04:21;7.57;;;2.03;;
83447;SDS011;73376;45.472;-73.568;2023-11-21T01:06:47;9.20;;;1.77;;
83447;SDS011;73376;45.472;-73.568;2023-11-21T01:09:13;3.93;;;1.90;;
83447;SDS011;73376;45.472;-73.568;2023-11-21T01:11:39;5.53;;;1.50;;
83447;SDS011;73376;45.472;-73.568;2023-11-21T01:14:05;5.40;;;1.30;;
83447;SDS011;73376;45.472;-73.568;2023-11-21T01:16:34;5.00;;;1.30;;
83447;SDS011;73376;45.472;-73.568;2023-11-21T01:19:00;5.53;;;2.03;;
83447;SDS011;73376;45.472;-73.568;2023-11-21T01:21:29;4.53;;;1.17;;
83447;SDS011;73376;45.472;-73.568;2023-11-21T01:24:01;4.55;;;1.25;;
83447;SDS011;73376;45.472;-73.568;2023-11-21T01:26:32;5.03;;;1.20;;
83447;SDS011;73376;45.472;-73.568;2023-11-21T01:28:59;5.03;;;1.77;;
83447;SDS011;73376;45.472;-73.568;2023-11-21T01:31:25;6.00;;;1.73;;
83447;SDS011;73376;45.472;-73.568;2023-11-21T01:33:56;6.33;;;1.77;;
83447;SDS011;73376;45.472;-73.568;2023-11-21T01:36:23;4.57;;;1.27;;
83447;SDS011;73376;45.472;-73.568;2023-11-21T01:38:54;5.03;;;1.73;;
83447;SDS011;73376;45.472;-73.568;2023-11-21T01:41:25;4.37;;;1.63;;
83447;SDS011;73376;45.472;-73.568;2023-11-21T01:43:54;2.93;;;1.60;;
83447;SDS011;73376;45.472;-73.568;2023-11-21T01:46:21;3.83;;;1.50;;
83447;SDS011;73376;45.472;-73.568;2023-11-21T01:48:48;6.83;;;1.50;;
83447;SDS011;73376;45.472;-73.568;2023-11-21T01:51:14;2.80;;;1.20;;
83447;SDS011;73376;45.472;-73.568;2023-11-21T01:53:42;6.43;;;1.43;;
83447;SDS011;73376;45.472;-73.568;2023-11-21T01:56:08;6.20;;;1.60;;
83447;SDS011;73376;45.472;-73.568;2023-11-21T01:58:34;4.47;;;1.50;;
83447;SDS011;73376;45.472;-73.568;2023-11-21T02:01:03;6.43;;;1.90;;
83447;SDS011;73376;45.472;-73.568;2023-11-21T02:03:32;5.85;;;1.63;;
83447;SDS011;73376;45.472;-73.568;2023-11-21T02:05:58;7.20;;;2.00;;
83447;SDS011;73376;45.472;-73.568;2023-11-21T02:08:27;7.97;;;1.80;;
83447;SDS011;73376;45.472;-73.568;2023-11-21T02:10:53;7.10;;;2.53;;
83447;SDS011;73376;45.472;-73.568;2023-11-21T02:13:19;5.60;;;1.80;;
83447;SDS011;73376;45.472;-73.568;2023-11-21T02:15:45;9.47;;;1.70;;
83447;SDS011;73376;45.472;-73.568;2023-11-21T02:18:12;3.93;;;1.47;;
83447;SDS011;73376;45.472;-73.568;2023-11-21T02:20:40;5.40;;;1.60;;
83447;SDS011;73376;45.472;-73.568;2023-11-21T02:23:07;5.70;;;1.60;;
83447;SDS011;73376;45.472;-73.568;2023-11-21T02:25:33;4.90;;;1.53;;
83447;SDS011;73376;45.472;-73.568;2023-11-21T02:28:02;5.33;;;1.60;;
83447;SDS011;73376;45.472;-73.568;2023-11-21T02:30:30;6.03;;;1.87;;
83447;SDS011;73376;45.472;-73.568;2023-11-21T02:33:02;5.33;;;1.67;;
83447;SDS011;73376;45.472;-73.568;2023-11-21T02:35:31;7.97;;;1.90;;
83447;SDS011;73376;45.472;-73.568;2023-11-21T02:37:57;5.73;;;1.83;;
83447;SDS011;73376;45.472;-73.568;2023-11-21T02:40:23;3.87;;;1.67;;
83447;SDS011;73376;45.472;-73.568;2023-11-21T02:42:54;9.47;;;2.00;;
83447;SDS011;73376;45.472;-73.568;2023-11-21T02:45:23;4.23;;;1.73;;
83447;SDS011;73376;45.472;-73.568;2023-11-21T02:47:49;7.50;;;2.50;;
83447;SDS011;73376;45.472;-73.568;2023-11-21T02:50:15;6.70;;;2.33;;
83447;SDS011;73376;45.472;-73.568;2023-11-21T02:52:44;7.70;;;1.80;;
83447;SDS011;73376;45.472;-73.568;2023-11-21T02:55:11;5.33;;;2.17;;
83447;SDS011;73376;45.472;-73.568;2023-11-21T02:57:39;4.23;;;1.73;;
83447;SDS011;73376;45.472;-73.568;2023-11-21T03:00:05;3.97;;;1.80;;
83447;SDS011;73376;45.472;-73.568;2023-11-21T03:02:40;5.53;;;1.43;;
83447;SDS011;73376;45.472;-73.568;2023-11-21T03:05:07;3.23;;;1.73;;
83447;SDS011;73376;45.472;-73.568;2023-11-21T03:07:36;4.97;;;1.80;;
83447;SDS011;73376;45.472;-73.568;2023-11-21T03:10:04;8.50;;;1.90;;
83447;SDS011;73376;45.472;-73.568;2023-11-21T03:12:31;7.73;;;2.30;;
83447;SDS011;73376;45.472;-73.568;2023-11-21T03:14:57;3.37;;;1.63;;
83447;SDS011;73376;45.472;-73.568;2023-11-21T03:17:23;5.53;;;1.93;;
83447;SDS011;73376;45.472;-73.568;2023-11-21T03:19:49;7.23;;;1.40;;
83447;SDS011;73376;45.472;-73.568;2023-11-21T03:22:17;7.07;;;1.40;;
83447;SDS011;73376;45.472;-73.568;2023-11-21T03:24:44;4.20;;;1.37;;
83447;SDS011;73376;45.472;-73.568;2023-11-21T03:27:10;6.77;;;1.30;;
83447;SDS011;73376;45.472;-73.568;2023-11-21T03:29:36;7.97;;;1.20;;
83447;SDS011;73376;45.472;-73.568;2023-11-21T03:32:02;5.43;;;1.47;;
83447;SDS011;73376;45.472;-73.568;2023-11-21T03:34:28;6.13;;;1.20;;
83447;SDS011;73376;45.472;-73.568;2023-11-21T03:36:54;5.03;;;1.63;;
83447;SDS011;73376;45.472;-73.568;2023-11-21T03:39:20;5.73;;;1.70;;
83447;SDS011;73376;45.472;-73.568;2023-11-21T03:41:47;6.90;;;1.50;;
83447;SDS011;73376;45.472;-73.568;2023-11-21T03:44:16;5.07;;;1.80;;
83447;SDS011;73376;45.472;-73.568;2023-11-21T03:46:43;9.33;;;1.70;;
83447;SDS011;73376;45.472;-73.568;2023-11-21T03:49:09;9.50;;;1.73;;
83447;SDS011;73376;45.472;-73.568;2023-11-21T03:51:36;10.07;;;2.10;;
83447;SDS011;73376;45.472;-73.568;2023-11-21T03:54:02;5.57;;;1.80;;
83447;SDS011;73376;45.472;-73.568;2023-11-21T03:56:29;12.63;;;2.00;;
83447;SDS011;73376;45.472;-73.568;2023-11-21T03:58:55;6.23;;;1.50;;
83447;SDS011;73376;45.472;-73.568;2023-11-21T04:01:23;3.97;;;1.47;;
83447;SDS011;73376;45.472;-73.568;2023-11-21T04:03:50;6.73;;;1.40;;
83447;SDS011;73376;45.472;-73.568;2023-11-21T04:06:16;6.33;;;1.43;;
83447;SDS011;73376;45.472;-73.568;2023-11-21T04:08:45;7.47;;;1.57;;
83447;SDS011;73376;45.472;-73.568;2023-11-21T04:11:11;9.17;;;2.00;;
83447;SDS011;73376;45.472;-73.568;2023-11-21T04:13:37;4.53;;;1.83;;
83447;SDS011;73376;45.472;-73.568;2023-11-21T04:16:05;3.83;;;1.40;;
83447;SDS011;73376;45.472;-73.568;2023-11-21T04:18:32;6.67;;;1.63;;
83447;SDS011;73376;45.472;-73.568;2023-11-21T04:20:59;2.90;;;1.50;;
83447;SDS011;73376;45.472;-73.568;2023-11-21T04:23:30;3.33;;;1.57;;
83447;SDS011;73376;45.472;-73.568;2023-11-21T04:25:57;3.57;;;1.30;;
83447;SDS011;73376;45.472;-73.568;2023-11-21T04:28:24;6.67;;;1.57;;
83447;SDS011;73376;45.472;-73.568;2023-11-21T04:30:50;3.10;;;1.60;;
83447;SDS011;73376;45.472;-73.568;2023-11-21T04:33:16;5.97;;;1.93;;
83447;SDS011;73376;45.472;-73.568;2023-11-21T04:35:42;3.73;;;1.63;;
83447;SDS011;73376;45.472;-73.568;2023-11-21T04:38:08;5.70;;;1.43;;
83447;SDS011;73376;45.472;-73.568;2023-11-21T04:40:36;4.47;;;1.70;;
83447;SDS011;73376;45.472;-73.568;2023-11-21T04:43:02;3.83;;;1.70;;
83447;SDS011;73376;45.472;-73.568;2023-11-21T04:45:29;4.20;;;1.60;;
83447;SDS011;73376;45.472;-73.568;2023-11-21T04:47:55;3.83;;;1.73;;
83447;SDS011;73376;45.472;-73.568;2023-11-21T04:50:23;5.33;;;1.60;;
83447;SDS011;73376;45.472;-73.568;2023-11-21T04:52:52;4.53;;;1.73;;
83447;SDS011;73376;45.472;-73.568;2023-11-21T04:55:18;4.20;;;1.70;;
83447;SDS011;73376;45.472;-73.568;2023-11-21T04:57:44;4.53;;;1.97;;
83447;SDS011;73376;45.472;-73.568;2023-11-21T05:00:12;3.97;;;1.90;;
83447;SDS011;73376;45.472;-73.568;2023-11-21T05:02:39;4.63;;;1.90;;
83447;SDS011;73376;45.472;-73.568;2023-11-21T05:05:06;21.93;;;2.57;;
83447;SDS011;73376;45.472;-73.568;2023-11-21T05:07:35;3.00;;;1.60;;
83447;SDS011;73376;45.472;-73.568;2023-11-21T05:10:03;5.03;;;1.40;;
83447;SDS011;73376;45.472;-73.568;2023-11-21T05:12:33;2.72;;;1.45;;
83447;SDS011;73376;45.472;-73.568;2023-11-21T05:15:03;4.10;;;1.60;;
83447;SDS011;73376;45.472;-73.568;2023-11-21T05:17:35;5.43;;;1.60;;
83447;SDS011;73376;45.472;-73.568;2023-11-21T05:20:10;7.27;;;2.73;;
83447;SDS011;73376;45.472;-73.568;2023-11-21T05:22:37;6.90;;;2.00;;
83447;SDS011;73376;45.472;-73.568;2023-11-21T05:25:03;5.70;;;1.90;;
83447;SDS011;73376;45.472;-73.568;2023-11-21T05:27:30;4.40;;;1.53;;
83447;SDS011;73376;45.472;-73.568;2023-11-21T05:29:56;8.50;;;1.50;;
83447;SDS011;73376;45.472;-73.568;2023-11-21T05:32:23;3.40;;;1.40;;
83447;SDS011;73376;45.472;-73.568;2023-11-21T05:34:52;5.00;;;1.57;;
83447;SDS011;73376;45.472;-73.568;2023-11-21T05:37:21;2.50;;;1.13;;
83447;SDS011;73376;45.472;-73.568;2023-11-21T05:39:48;5.67;;;1.20;;
83447;SDS011;73376;45.472;-73.568;2023-11-21T05:42:15;10.90;;;1.70;;
83447;SDS011;73376;45.472;-73.568;2023-11-21T05:44:42;3.13;;;1.60;;
83447;SDS011;73376;45.472;-73.568;2023-11-21T05:47:11;4.83;;;1.33;;
83447;SDS011;73376;45.472;-73.568;2023-11-21T05:49:38;5.17;;;1.30;;
83447;SDS011;73376;45.472;-73.568;2023-11-21T05:52:10;3.00;;;1.57;;
83447;SDS011;73376;45.472;-73.568;2023-11-21T05:54:36;4.90;;;1.87;;
83447;SDS011;73376;45.472;-73.568;2023-11-21T05:57:02;3.87;;;1.40;;
83447;SDS011;73376;45.472;-73.568;2023-11-21T05:59:28;7.20;;;1.53;;
83447;SDS011;73376;45.472;-73.568;2023-11-21T06:01:53;6.60;;;1.90;;
83447;SDS011;73376;45.472;-73.568;2023-11-21T06:04:19;5.27;;;1.73;;
83447;SDS011;73376;45.472;-73.568;2023-11-21T06:06:49;4.53;;;1.93;;
83447;SDS011;73376;45.472;-73.568;2023-11-21T06:09:16;4.83;;;1.80;;
83447;SDS011;73376;45.472;-73.568;2023-11-21T06:11:42;6.23;;;2.00;;
83447;SDS011;73376;45.472;-73.568;2023-11-21T06:14:08;3.70;;;1.60;;
83447;SDS011;73376;45.472;-73.568;2023-11-21T06:16:36;4.70;;;1.73;;
83447;SDS011;73376;45.472;-73.568;2023-11-21T06:19:02;4.20;;;1.80;;
83447;SDS011;73376;45.472;-73.568;2023-11-21T06:21:28;5.37;;;1.87;;
83447;SDS011;73376;45.472;-73.568;2023-11-21T06:23:54;3.37;;;2.30;;
83447;SDS011;73376;45.472;-73.568;2023-11-21T06:26:22;5.60;;;1.70;;
83447;SDS011;73376;45.472;-73.568;2023-11-21T06:28:52;3.73;;;1.70;;
83447;SDS011;73376;45.472;-73.568;2023-11-21T06:31:21;5.60;;;1.90;;
83447;SDS011;73376;45.472;-73.568;2023-11-21T06:33:47;6.50;;;1.97;;
83447;SDS011;73376;45.472;-73.568;2023-11-21T06:36:17;8.00;;;2.00;;
83447;SDS011;73376;45.472;-73.568;2023-11-21T06:38:43;10.07;;;1.87;;
83447;SDS011;73376;45.472;-73.568;2023-11-21T06:41:10;6.73;;;2.00;;
83447;SDS011;73376;45.472;-73.568;2023-11-21T06:43:39;7.40;;;2.50;;
83447;SDS011;73376;45.472;-73.568;2023-11-21T06:46:05;6.27;;;2.60;;
83447;SDS011;73376;45.472;-73.568;2023-11-21T06:48:31;7.27;;;2.00;;
83447;SDS011;73376;45.472;-73.568;2023-11-21T06:50:57;5.60;;;2.33;;
83447;SDS011;73376;45.472;-73.568;2023-11-21T06:53:23;8.10;;;2.37;;
83447;SDS011;73376;45.472;-73.568;2023-11-21T06:55:49;7.87;;;2.50;;
83447;SDS011;73376;45.472;-73.568;2023-11-21T06:58:15;7.88;;;2.90;;
83447;SDS011;73376;45.472;-73.568;2023-11-21T07:00:44;7.28;;;2.85;;
83447;SDS011;73376;45.472;-73.568;2023-11-21T07:03:12;5.80;;;2.53;;
83447;SDS011;73376;45.472;-73.568;2023-11-21T07:05:38;9.80;;;2.80;;
83447;SDS011;73376;45.472;-73.568;2023-11-21T07:08:04;9.20;;;2.58;;
83447;SDS011;73376;45.472;-73.568;2023-11-21T07:10:30;9.23;;;2.65;;
83447;SDS011;73376;45.472;-73.568;2023-11-21T07:12:56;5.70;;;2.60;;
83447;SDS011;73376;45.472;-73.568;2023-11-21T07:15:22;5.63;;;2.63;;
83447;SDS011;73376;45.472;-73.568;2023-11-21T07:17:49;9.00;;;2.73;;
83447;SDS011;73376;45.472;-73.568;2023-11-21T07:20:15;7.88;;;2.78;;
83447;SDS011;73376;45.472;-73.568;2023-11-21T07:22:42;8.47;;;2.80;;
83447;SDS011;73376;45.472;-73.568;2023-11-21T07:25:08;6.90;;;3.47;;
83447;SDS011;73376;45.472;-73.568;2023-11-21T07:27:35;8.18;;;2.88;;
83447;SDS011;73376;45.472;-73.568;2023-11-21T07:30:02;9.75;;;3.08;;
83447;SDS011;73376;45.472;-73.568;2023-11-21T07:32:30;7.65;;;3.05;;
83447;SDS011;73376;45.472;-73.568;2023-11-21T07:34:57;6.85;;;2.80;;
83447;SDS011;73376;45.472;-73.568;2023-11-21T07:37:26;10.20;;;2.80;;
83447;SDS011;73376;45.472;-73.568;2023-11-21T07:39:55;7.07;;;2.90;;
83447;SDS011;73376;45.472;-73.568;2023-11-21T07:42:24;7.43;;;2.73;;
83447;SDS011;73376;45.472;-73.568;2023-11-21T07:44:52;6.53;;;3.30;;
83447;SDS011;73376;45.472;-73.568;2023-11-21T07:47:18;8.20;;;3.60;;
83447;SDS011;73376;45.472;-73.568;2023-11-21T07:49:44;7.83;;;3.07;;
83447;SDS011;73376;45.472;-73.568;2023-11-21T07:52:12;7.20;;;3.30;;
83447;SDS011;73376;45.472;-73.568;2023-11-21T07:54:38;8.37;;;3.40;;
83447;SDS011;73376;45.472;-73.568;2023-11-21T07:57:04;10.90;;;3.37;;
83447;SDS011;73376;45.472;-73.568;2023-11-21T07:59:32;8.80;;;3.47;;
83447;SDS011;73376;45.472;-73.568;2023-11-21T08:01:58;6.88;;;2.70;;
83447;SDS011;73376;45.472;-73.568;2023-11-21T08:04:24;8.60;;;3.10;;
83447;SDS011;73376;45.472;-73.568;2023-11-21T08:06:53;6.53;;;2.80;;
83447;SDS011;73376;45.472;-73.568;2023-11-21T08:09:19;11.20;;;3.53;;
83447;SDS011;73376;45.472;-73.568;2023-11-21T08:11:51;6.68;;;3.22;;
83447;SDS011;73376;45.472;-73.568;2023-11-21T08:14:18;8.88;;;3.90;;
83447;SDS011;73376;45.472;-73.568;2023-11-21T08:16:45;11.38;;;3.55;;
83447;SDS011;73376;45.472;-73.568;2023-11-21T08:19:11;10.13;;;4.03;;
83447;SDS011;73376;45.472;-73.568;2023-11-21T08:21:37;8.57;;;3.93;;
83447;SDS011;73376;45.472;-73.568;2023-11-21T08:24:04;9.18;;;3.92;;
83447;SDS011;73376;45.472;-73.568;2023-11-21T08:26:36;12.25;;;5.30;;
83447;SDS011;73376;45.472;-73.568;2023-11-21T08:29:03;11.80;;;4.43;;
83447;SDS011;73376;45.472;-73.568;2023-11-21T08:31:29;13.15;;;4.60;;
83447;SDS011;73376;45.472;-73.568;2023-11-21T08:33:55;10.17;;;4.13;;
83447;SDS011;73376;45.472;-73.568;2023-11-21T08:36:23;10.30;;;4.28;;
83447;SDS011;73376;45.472;-73.568;2023-11-21T08:38:50;7.55;;;4.05;;
83447;SDS011;73376;45.472;-73.568;2023-11-21T08:41:19;10.93;;;4.47;;
83447;SDS011;73376;45.472;-73.568;2023-11-21T08:43:52;7.72;;;4.22;;
83447;SDS011;73376;45.472;-73.568;2023-11-21T08:46:20;9.40;;;4.55;;
83447;SDS011;73376;45.472;-73.568;2023-11-21T08:48:48;11.10;;;5.20;;
83447;SDS011;73376;45.472;-73.568;2023-11-21T08:51:17;11.25;;;4.80;;
83447;SDS011;73376;45.472;-73.568;2023-11-21T08:53:43;13.57;;;4.65;;
83447;SDS011;73376;45.472;-73.568;2023-11-21T08:56:13;10.90;;;4.50;;
83447;SDS011;73376;45.472;-73.568;2023-11-21T08:58:43;7.43;;;4.68;;
83447;SDS011;73376;45.472;-73.568;2023-11-21T09:01:10;12.95;;;5.22;;
83447;SDS011;73376;45.472;-73.568;2023-11-21T09:03:37;11.38;;;5.13;;
83447;SDS011;73376;45.472;-73.568;2023-11-21T09:06:03;14.13;;;4.70;;
83447;SDS011;73376;45.472;-73.568;2023-11-21T09:08:29;9.45;;;4.53;;
83447;SDS011;73376;45.472;-73.568;2023-11-21T09:10:55;11.95;;;4.80;;
83447;SDS011;73376;45.472;-73.568;2023-11-21T09:13:22;10.77;;;4.90;;
83447;SDS011;73376;45.472;-73.568;2023-11-21T09:15:50;11.35;;;4.55;;
83447;SDS011;73376;45.472;-73.568;2023-11-21T09:18:16;12.70;;;4.55;;
83447;SDS011;73376;45.472;-73.568;2023-11-21T09:20:45;10.13;;;4.67;;
83447;SDS011;73376;45.472;-73.568;2023-11-21T09:23:11;12.13;;;4.75;;
83447;SDS011;73376;45.472;-73.568;2023-11-21T09:25:37;18.33;;;5.20;;
83447;SDS011;73376;45.472;-73.568;2023-11-21T09:28:03;10.43;;;4.50;;
83447;SDS011;73376;45.472;-73.568;2023-11-21T09:30:33;13.43;;;4.97;;
83447;SDS011;73376;45.472;-73.568;2023-11-21T09:33:01;10.70;;;5.05;;
83447;SDS011;73376;45.472;-73.568;2023-11-21T09:35:27;13.48;;;5.15;;
83447;SDS011;73376;45.472;-73.568;2023-11-21T09:37:53;10.67;;;5.20;;
83447;SDS011;73376;45.472;-73.568;2023-11-21T09:40:22;11.77;;;4.82;;
83447;SDS011;73376;45.472;-73.568;2023-11-21T09:42:51;9.30;;;4.78;;
83447;SDS011;73376;45.472;-73.568;2023-11-21T09:47:54;9.45;;;4.82;;
83447;SDS011;73376;45.472;-73.568;2023-11-21T09:50:24;15.02;;;5.55;;
83447;SDS011;73376;45.472;-73.568;2023-11-21T09:55:24;9.43;;;4.50;;
83447;SDS011;73376;45.472;-73.568;2023-11-21T09:57:52;11.57;;;4.95;;
83447;SDS011;73376;45.472;-73.568;2023-11-21T10:00:19;9.65;;;4.47;;
83447;SDS011;73376;45.472;-73.568;2023-11-21T10:02:49;10.68;;;4.82;;
83447;SDS011;73376;45.472;-73.568;2023-11-21T10:05:16;11.23;;;4.88;;
83447;SDS011;73376;45.472;-73.568;2023-11-21T10:07:45;11.00;;;4.45;;
83447;SDS011;73376;45.472;-73.568;2023-11-21T10:10:12;14.02;;;5.07;;
83447;SDS011;73376;45.472;-73.568;2023-11-21T10:12:43;8.05;;;4.60;;
83447;SDS011;73376;45.472;-73.568;2023-11-21T10:15:14;9.55;;;4.53;;
83447;SDS011;73376;45.472;-73.568;2023-11-21T10:17:42;10.38;;;5.00;;
83447;SDS011;73376;45.472;-73.568;2023-11-21T10:20:14;9.88;;;4.78;;
83447;SDS011;73376;45.472;-73.568;2023-11-21T10:22:43;11.73;;;5.25;;
83447;SDS011;73376;45.472;-73.568;2023-11-21T10:25:09;13.25;;;5.18;;
83447;SDS011;73376;45.472;-73.568;2023-11-21T10:27:42;9.00;;;4.88;;
83447;SDS011;73376;45.472;-73.568;2023-11-21T10:30:11;11.15;;;5.40;;
83447;SDS011;73376;45.472;-73.568;2023-11-21T10:32:41;13.75;;;5.38;;
83447;SDS011;73376;45.472;-73.568;2023-11-21T10:35:08;11.38;;;5.70;;
83447;SDS011;73376;45.472;-73.568;2023-11-21T10:37:37;9.50;;;4.70;;
83447;SDS011;73376;45.472;-73.568;2023-11-21T10:40:06;11.50;;;5.38;;
83447;SDS011;73376;45.472;-73.568;2023-11-21T10:42:39;9.00;;;4.75;;
83447;SDS011;73376;45.472;-73.568;2023-11-21T10:45:12;10.48;;;4.82;;
83447;SDS011;73376;45.472;-73.568;2023-11-21T10:47:40;12.05;;;5.20;;
83447;SDS011;73376;45.472;-73.568;2023-11-21T10:50:07;10.40;;;4.68;;
83447;SDS011;73376;45.472;-73.568;2023-11-21T10:52:37;10.88;;;5.32;;
83447;SDS011;73376;45.472;-73.568;2023-11-21T10:55:25;13.38;;;5.00;;
83447;SDS011;73376;45.472;-73.568;2023-11-21T10:57:52;17.40;;;5.45;;
83447;SDS011;73376;45.472;-73.568;2023-11-21T11:00:19;13.63;;;5.13;;
83447;SDS011;73376;45.472;-73.568;2023-11-21T11:02:52;15.02;;;5.00;;
83447;SDS011;73376;45.472;-73.568;2023-11-21T11:05:20;13.38;;;5.25;;
83447;SDS011;73376;45.472;-73.568;2023-11-21T11:07:50;11.05;;;5.00;;
83447;SDS011;73376;45.472;-73.568;2023-11-21T11:10:25;10.75;;;5.03;;
83447;SDS011;73376;45.472;-73.568;2023-11-21T11:12:53;9.40;;;5.03;;
83447;SDS011;73376;45.472;-73.568;2023-11-21T11:15:20;9.60;;;4.53;;
83447;SDS011;73376;45.472;-73.568;2023-11-21T11:17:47;12.40;;;5.20;;
83447;SDS011;73376;45.472;-73.568;2023-11-21T11:20:14;15.80;;;5.47;;
83447;SDS011;73376;45.472;-73.568;2023-11-21T11:25:34;14.60;;;6.22;;
83447;SDS011;73376;45.472;-73.568;2023-11-21T11:28:26;12.73;;;4.93;;
83447;SDS011;73376;45.472;-73.568;2023-11-21T11:31:11;12.32;;;5.43;;
83447;SDS011;73376;45.472;-73.568;2023-11-21T11:36:29;12.27;;;5.20;;
83447;SDS011;73376;45.472;-73.568;2023-11-21T11:39:30;14.30;;;5.15;;
83447;SDS011;73376;45.472;-73.568;2023-11-21T11:41:57;10.68;;;5.75;;
83447;SDS011;73376;45.472;-73.568;2023-11-21T11:47:30;11.25;;;4.85;;
83447;SDS011;73376;45.472;-73.568;2023-11-21T11:50:06;11.32;;;4.88;;
83447;SDS011;73376;45.472;-73.568;2023-11-21T11:55:16;11.82;;;4.53;;
83447;SDS011;73376;45.472;-73.568;2023-11-21T12:00:17;12.63;;;4.38;;
83447;SDS011;73376;45.472;-73.568;2023-11-21T12:05:24;11.00;;;4.35;;
83447;SDS011;73376;45.472;-73.568;2023-11-21T12:07:57;10.80;;;4.03;;
83447;SDS011;73376;45.472;-73.568;2023-11-21T12:12:54;12.02;;;4.43;;
83447;SDS011;73376;45.472;-73.568;2023-11-21T12:15:22;15.80;;;5.22;;
83447;SDS011;73376;45.472;-73.568;2023-11-21T12:17:49;12.32;;;5.65;;
83447;SDS011;73376;45.472;-73.568;2023-11-21T12:20:17;12.18;;;4.45;;
83447;SDS011;73376;45.472;-73.568;2023-11-21T12:22:48;10.93;;;4.50;;
83447;SDS011;73376;45.472;-73.568;2023-11-21T12:25:23;11.90;;;4.47;;
83447;SDS011;73376;45.472;-73.568;2023-11-21T12:27:54;11.57;;;4.43;;
83447;SDS011;73376;45.472;-73.568;2023-11-21T12:30:21;14.77;;;5.07;;
83447;SDS011;73376;45.472;-73.568;2023-11-21T12:32:49;14.95;;;4.70;;
83447;SDS011;73376;45.472;-73.568;2023-11-21T12:35:19;15.90;;;4.45;;
83447;SDS011;73376;45.472;-73.568;2023-11-21T12:37:49;10.55;;;3.95;;
83447;SDS011;73376;45.472;-73.568;2023-11-21T12:40:17;7.95;;;3.92;;
83447;SDS011;73376;45.472;-73.568;2023-11-21T12:42:47;10.73;;;4.60;;
83447;SDS011;73376;45.472;-73.568;2023-11-21T12:47:47;7.60;;;3.95;;
83447;SDS011;73376;45.472;-73.568;2023-11-21T12:50:20;14.40;;;4.47;;
83447;SDS011;73376;45.472;-73.568;2023-11-21T12:52:49;8.10;;;3.80;;
83447;SDS011;73376;45.472;-73.568;2023-11-21T12:55:20;10.05;;;4.07;;
83447;SDS011;73376;45.472;-73.568;2023-11-21T12:57:53;11.35;;;3.95;;
83447;SDS011;73376;45.472;-73.568;2023-11-21T13:00:34;8.63;;;4.30;;
83447;SDS011;73376;45.472;-73.568;2023-11-21T13:03:08;17.42;;;4.25;;
83447;SDS011;73376;45.472;-73.568;2023-11-21T13:05:42;8.25;;;3.92;;
83447;SDS011;73376;45.472;-73.568;2023-11-21T13:08:10;10.75;;;3.90;;
83447;SDS011;73376;45.472;-73.568;2023-11-21T13:10:41;8.38;;;3.47;;
83447;SDS011;73376;45.472;-73.568;2023-11-21T13:13:12;8.82;;;3.90;;
83447;SDS011;73376;45.472;-73.568;2023-11-21T13:15:48;6.68;;;3.35;;
83447;SDS011;73376;45.472;-73.568;2023-11-21T13:18:20;8.85;;;3.83;;
83447;SDS011;73376;45.472;-73.568;2023-11-21T13:20:47;9.90;;;3.67;;
83447;SDS011;73376;45.472;-73.568;2023-11-21T13:23:13;10.13;;;3.75;;
83447;SDS011;73376;45.472;-73.568;2023-11-21T13:25:42;11.15;;;3.88;;
83447;SDS011;73376;45.472;-73.568;2023-11-21T13:28:13;14.02;;;4.15;;
83447;SDS011;73376;45.472;-73.568;2023-11-21T13:30:40;11.73;;;4.20;;
83447;SDS011;73376;45.472;-73.568;2023-11-21T13:33:07;11.38;;;4.05;;
83447;SDS011;73376;45.472;-73.568;2023-11-21T13:35:45;11.98;;;4.97;;
83447;SDS011;73376;45.472;-73.568;2023-11-21T13:38:15;10.63;;;4.65;;
83447;SDS011;73376;45.472;-73.568;2023-11-21T13:40:46;12.07;;;4.18;;
83447;SDS011;73376;45.472;-73.568;2023-11-21T13:43:20;11.82;;;4.70;;
83447;SDS011;73376;45.472;-73.568;2023-11-21T13:45:53;12.90;;;3.65;;
83447;SDS011;73376;45.472;-73.568;2023-11-21T13:48:29;10.15;;;4.07;;
83447;SDS011;73376;45.472;-73.568;2023-11-21T13:51:04;9.18;;;4.05;;
83447;SDS011;73376;45.472;-73.568;2023-11-21T13:53:56;10.90;;;4.18;;
83447;SDS011;73376;45.472;-73.568;2023-11-21T13:56:22;19.37;;;4.43;;
83447;SDS011;73376;45.472;-73.568;2023-11-21T13:58:53;9.90;;;4.18;;
83447;SDS011;73376;45.472;-73.568;2023-11-21T14:01:24;14.60;;;3.97;;
83447;SDS011;73376;45.472;-73.568;2023-11-21T14:03:57;11.37;;;3.87;;
83447;SDS011;73376;45.472;-73.568;2023-11-21T14:06:49;8.70;;;3.70;;
83447;SDS011;73376;45.472;-73.568;2023-11-21T14:09:20;9.93;;;3.63;;
83447;SDS011;73376;45.472;-73.568;2023-11-21T14:11:49;6.57;;;3.20;;
83447;SDS011;73376;45.472;-73.568;2023-11-21T14:14:17;10.87;;;3.70;;
83447;SDS011;73376;45.472;-73.568;2023-11-21T14:16:44;8.63;;;3.60;;
83447;SDS011;73376;45.472;-73.568;2023-11-21T14:19:10;7.47;;;2.77;;
83447;SDS011;73376;45.472;-73.568;2023-11-21T14:21:42;15.27;;;3.33;;
83447;SDS011;73376;45.472;-73.568;2023-11-21T14:24:13;13.63;;;3.60;;
83447;SDS011;73376;45.472;-73.568;2023-11-21T14:26:43;10.93;;;3.30;;
83447;SDS011;73376;45.472;-73.568;2023-11-21T14:29:20;8.17;;;3.73;;
83447;SDS011;73376;45.472;-73.568;2023-11-21T14:31:49;10.17;;;3.47;;
83447;SDS011;73376;45.472;-73.568;2023-11-21T14:34:18;10.60;;;3.30;;
83447;SDS011;73376;45.472;-73.568;2023-11-21T14:36:44;9.17;;;3.17;;
83447;SDS011;73376;45.472;-73.568;2023-11-21T14:39:10;8.93;;;3.27;;
83447;SDS011;73376;45.472;-73.568;2023-11-21T14:41:48;11.87;;;3.00;;
83447;SDS011;73376;45.472;-73.568;2023-11-21T14:44:18;13.73;;;3.33;;
83447;SDS011;73376;45.472;-73.568;2023-11-21T14:46:44;11.17;;;3.57;;
83447;SDS011;73376;45.472;-73.568;2023-11-21T14:49:12;6.93;;;3.40;;